createdAt,value
2018-10-18T00:00:20.221Z,10.18
2018-10-18T00:02:48.016Z,11.13
2018-10-18T00:05:15.906Z,10.73
2018-10-18T00:07:43.754Z,10.97
2018-10-18T00:11:35.201Z,11.15
2018-10-18T00:14:03.086Z,10.60
2018-10-18T00:16:31.221Z,10.77
2018-10-18T00:18:59.218Z,10.63
2018-10-18T00:21:26.873Z,10.40
2018-10-18T00:23:55.209Z,10.90
2018-10-18T00:26:23.001Z,9.87
2018-10-18T00:28:50.861Z,9.65
2018-10-18T00:31:18.953Z,10.00
2018-10-18T00:33:46.997Z,10.00
2018-10-18T00:36:14.971Z,10.17
2018-10-18T00:38:42.670Z,10.80
2018-10-18T00:43:37.845Z,10.60
2018-10-18T00:46:05.862Z,9.83
2018-10-18T00:48:33.746Z,9.63
2018-10-18T00:51:01.627Z,10.10
2018-10-18T00:53:29.524Z,10.50
2018-10-18T00:55:57.324Z,10.03
2018-10-18T00:58:25.038Z,10.73
2018-10-18T01:00:53.077Z,11.20
2018-10-18T01:03:20.788Z,10.23
2018-10-18T01:05:48.614Z,9.40
2018-10-18T01:08:16.563Z,10.03
2018-10-18T01:13:11.308Z,9.85
2018-10-18T01:15:39.017Z,9.83
2018-10-18T01:18:07.145Z,9.95
2018-10-18T01:20:41.313Z,10.83
2018-10-18T01:23:09.386Z,10.43
2018-10-18T01:25:37.553Z,9.57
2018-10-18T01:28:05.455Z,9.70
2018-10-18T01:30:33.307Z,10.30
2018-10-18T01:33:01.034Z,10.17
2018-10-18T01:35:29.006Z,9.25
2018-10-18T01:37:57.211Z,10.70
2018-10-18T01:40:25.046Z,10.40
2018-10-18T01:45:20.419Z,10.13
2018-10-18T01:47:48.393Z,9.93
2018-10-18T01:50:16.272Z,9.10
2018-10-18T01:52:44.153Z,9.70
2018-10-18T01:57:39.195Z,9.63
2018-10-18T02:00:07.997Z,9.60
2018-10-18T02:02:35.662Z,9.13
2018-10-18T02:05:03.491Z,9.47
2018-10-18T02:07:31.310Z,8.95
2018-10-18T02:09:59.030Z,10.30
2018-10-18T02:12:26.841Z,10.17
2018-10-18T02:14:54.636Z,10.10
2018-10-18T02:17:22.659Z,10.48
2018-10-18T02:19:50.590Z,10.23
2018-10-18T02:22:18.526Z,10.40
2018-10-18T02:24:46.582Z,10.07
2018-10-18T02:27:14.532Z,10.53
2018-10-18T02:29:42.185Z,9.70
2018-10-18T02:32:09.790Z,9.50
2018-10-18T02:34:37.638Z,10.50
2018-10-18T02:39:33.394Z,8.53
2018-10-18T02:42:01.371Z,8.80
2018-10-18T02:44:29.222Z,9.20
2018-10-18T02:46:56.949Z,8.90
2018-10-18T02:49:25.401Z,9.13
2018-10-18T02:51:53.191Z,8.53
2018-10-18T02:54:21.117Z,8.95
2018-10-18T02:56:48.806Z,9.50
2018-10-18T02:59:16.763Z,9.60
2018-10-18T03:01:44.631Z,10.47
2018-10-18T03:04:12.551Z,10.17
2018-10-18T03:06:40.322Z,10.23
2018-10-18T03:09:09.566Z,10.20
2018-10-18T03:11:37.422Z,9.83
2018-10-18T03:16:32.559Z,9.15
2018-10-18T03:19:00.478Z,9.47
2018-10-18T03:23:55.476Z,8.95
2018-10-18T03:26:23.382Z,9.30
2018-10-18T03:28:51.185Z,10.17
2018-10-18T03:31:18.903Z,10.20
2018-10-18T03:33:46.761Z,9.75
2018-10-18T03:38:42.953Z,8.40
2018-10-18T03:41:10.802Z,8.90
2018-10-18T03:43:38.670Z,9.70
2018-10-18T03:46:06.566Z,9.27
2018-10-18T03:48:34.598Z,10.60
2018-10-18T03:51:02.307Z,10.83
2018-10-18T03:54:26.035Z,8.85
2018-10-18T03:58:06.986Z,10.30
2018-10-18T04:00:34.753Z,9.70
2018-10-18T04:04:27.189Z,9.60
2018-10-18T04:06:55.172Z,9.73
2018-10-18T04:09:23.197Z,10.38
2018-10-18T04:11:50.872Z,9.93
2018-10-18T04:14:18.698Z,10.60
2018-10-18T04:16:46.755Z,10.20
2018-10-18T04:19:14.612Z,10.30
2018-10-18T04:21:42.377Z,9.93
2018-10-18T04:26:37.653Z,10.17
2018-10-18T04:29:05.465Z,9.17
2018-10-18T04:31:33.193Z,9.23
2018-10-18T04:34:00.810Z,9.83
2018-10-18T04:36:28.678Z,9.43
2018-10-18T04:38:56.582Z,9.30
2018-10-18T04:41:24.497Z,9.17
2018-10-18T04:43:52.409Z,9.38
2018-10-18T04:46:20.303Z,9.57
2018-10-18T04:48:48.022Z,9.38
2018-10-18T04:51:15.858Z,9.80
2018-10-18T04:53:43.730Z,9.23
2018-10-18T04:56:11.583Z,10.23
2018-10-18T04:58:39.486Z,10.80
2018-10-18T05:01:07.624Z,10.03
2018-10-18T05:03:35.313Z,9.67
2018-10-18T05:06:04.423Z,10.00
2018-10-18T05:08:32.349Z,9.80
2018-10-18T05:11:00.199Z,9.70
2018-10-18T05:13:28.052Z,9.53
2018-10-18T05:15:55.910Z,9.43
2018-10-18T05:18:23.910Z,9.07
2018-10-18T05:20:51.820Z,9.90
2018-10-18T05:23:19.659Z,8.90
2018-10-18T05:25:48.306Z,8.63
2018-10-18T05:28:16.036Z,9.37
2018-10-18T05:30:43.984Z,9.10
2018-10-18T05:35:39.105Z,9.33
2018-10-18T05:38:06.987Z,9.05
2018-10-18T05:43:02.339Z,9.93
2018-10-18T05:45:30.193Z,9.97
2018-10-18T05:47:58.406Z,10.23
2018-10-18T05:50:26.272Z,9.67
2018-10-18T05:52:54.039Z,9.33
2018-10-18T05:55:21.754Z,9.57
2018-10-18T05:57:49.613Z,9.43
2018-10-18T06:00:18.099Z,9.10
2018-10-18T06:05:14.797Z,9.63
2018-10-18T06:07:43.396Z,9.00
2018-10-18T06:11:55.222Z,9.13
2018-10-18T06:14:22.966Z,8.93
2018-10-18T06:16:50.677Z,8.73
2018-10-18T06:22:41.082Z,11.20
2018-10-18T06:25:09.415Z,10.10
2018-10-18T06:27:37.317Z,9.67
2018-10-18T06:30:07.205Z,10.03
2018-10-18T06:32:35.005Z,9.80
2018-10-18T06:35:03.051Z,9.80
2018-10-18T06:39:58.334Z,10.33
2018-10-18T06:42:26.051Z,11.27
2018-10-18T06:44:54.594Z,11.08
2018-10-18T06:47:22.452Z,10.90
2018-10-18T06:49:50.212Z,11.53
2018-10-18T06:52:18.101Z,11.95
2018-10-18T06:54:45.993Z,11.93
2018-10-18T06:57:13.826Z,12.30
2018-10-18T06:59:41.649Z,11.83
2018-10-18T07:02:09.314Z,11.88
2018-10-18T07:04:37.079Z,12.37
2018-10-18T07:07:04.990Z,12.53
2018-10-18T07:09:32.966Z,11.90
2018-10-18T07:12:00.817Z,12.60
2018-10-18T07:14:28.622Z,12.63
2018-10-18T07:16:56.506Z,12.63
2018-10-18T07:21:51.934Z,13.23
2018-10-18T07:24:20.597Z,13.05
2018-10-18T07:29:16.486Z,12.63
2018-10-18T07:31:44.346Z,13.27
2018-10-18T07:34:12.054Z,13.73
2018-10-18T07:39:11.370Z,14.47
2018-10-18T07:41:39.061Z,13.83
2018-10-18T07:44:06.791Z,13.80
2018-10-18T07:46:35.840Z,13.93
2018-10-18T07:49:04.530Z,14.50
2018-10-18T07:51:32.397Z,13.53
2018-10-18T07:54:00.458Z,14.43
2018-10-18T07:58:55.690Z,13.87
2018-10-18T08:03:51.400Z,14.07
2018-10-18T08:06:19.224Z,13.93
2018-10-18T08:08:46.997Z,14.90
2018-10-18T08:11:14.812Z,13.90
2018-10-18T08:13:42.775Z,15.67
2018-10-18T08:16:10.610Z,15.83
2018-10-18T08:18:38.468Z,13.65
2018-10-18T08:21:06.465Z,15.67
2018-10-18T08:23:34.216Z,14.63
2018-10-18T08:26:01.996Z,16.20
2018-10-18T08:28:29.898Z,15.75
2018-10-18T08:30:58.644Z,15.30
2018-10-18T08:33:26.482Z,15.23
2018-10-18T08:38:22.475Z,16.43
2018-10-18T08:40:50.518Z,16.30
2018-10-18T08:43:19.063Z,15.35
2018-10-18T08:45:46.975Z,15.23
2018-10-18T08:48:14.885Z,15.50
2018-10-18T08:50:42.700Z,15.60
2018-10-18T08:53:10.603Z,14.87
2018-10-18T08:55:38.543Z,14.50
2018-10-18T09:00:33.687Z,15.07
2018-10-18T09:03:01.554Z,15.27
2018-10-18T09:05:29.289Z,16.20
2018-10-18T09:07:57.005Z,15.33
2018-10-18T09:10:25.687Z,16.37
2018-10-18T09:12:53.601Z,15.47
2018-10-18T09:15:21.598Z,15.93
2018-10-18T09:17:49.486Z,16.13
2018-10-18T09:22:44.694Z,15.90
2018-10-18T09:25:12.724Z,17.93
2018-10-18T09:27:41.004Z,15.95
2018-10-18T09:30:11.049Z,14.57
2018-10-18T09:35:06.460Z,15.73
2018-10-18T09:37:34.591Z,13.93
2018-10-18T09:40:02.408Z,14.70
2018-10-18T09:42:30.607Z,15.20
2018-10-18T09:44:58.642Z,14.87
2018-10-18T09:47:26.711Z,15.17
2018-10-18T09:49:54.756Z,16.25
2018-10-18T09:52:22.604Z,15.72
2018-10-18T09:54:50.513Z,15.03
2018-10-18T09:59:45.591Z,16.80
2018-10-18T10:02:19.629Z,16.13
2018-10-18T10:04:47.569Z,16.37
2018-10-18T10:09:42.606Z,15.55
2018-10-18T10:12:10.597Z,15.20
2018-10-18T10:17:06.860Z,14.33
2018-10-18T10:19:34.673Z,15.13
2018-10-18T10:22:02.601Z,14.30
2018-10-18T10:24:30.565Z,14.43
2018-10-18T10:29:25.610Z,13.15
2018-10-18T10:31:53.612Z,14.33
2018-10-18T10:34:21.485Z,16.17
2018-10-18T10:36:49.318Z,16.37
2018-10-18T10:39:17.164Z,16.33
2018-10-18T10:41:45.227Z,16.93
2018-10-18T10:44:13.085Z,15.85
2018-10-18T10:46:41.018Z,16.67
2018-10-18T10:49:09.062Z,16.25
2018-10-18T10:51:37.061Z,15.80
2018-10-18T10:54:06.719Z,14.87
2018-10-18T10:56:34.470Z,14.47
2018-10-18T10:59:18.865Z,15.23
2018-10-18T11:01:46.951Z,14.27
2018-10-18T11:04:14.907Z,14.77
2018-10-18T11:06:42.773Z,14.93
2018-10-18T11:09:11.236Z,13.80
2018-10-18T11:11:39.062Z,13.85
2018-10-18T11:14:06.938Z,15.77
2018-10-18T11:16:35.073Z,15.80
2018-10-18T11:19:03.467Z,14.98
2018-10-18T11:21:34.137Z,16.07
2018-10-18T11:24:02.011Z,16.17
2018-10-18T11:26:29.827Z,16.80
2018-10-18T11:28:57.951Z,15.70
2018-10-18T11:31:25.754Z,15.87
2018-10-18T11:38:48.423Z,15.93
2018-10-18T11:41:16.503Z,14.63
2018-10-18T11:43:44.234Z,14.57
2018-10-18T11:46:12.049Z,15.33
2018-10-18T11:48:39.897Z,14.78
2018-10-18T11:51:07.726Z,14.87
2018-10-18T11:53:35.561Z,14.47
2018-10-18T11:56:03.242Z,14.37
2018-10-18T12:00:58.521Z,14.43
2018-10-18T12:03:26.329Z,15.83
2018-10-18T12:05:54.075Z,15.90
2018-10-18T12:08:21.916Z,15.43
2018-10-18T12:10:49.742Z,14.47
2018-10-18T12:13:17.609Z,13.50
2018-10-18T12:15:45.445Z,14.37
2018-10-18T12:18:13.204Z,13.90
2018-10-18T12:20:41.201Z,14.50
2018-10-18T12:23:09.061Z,14.60
2018-10-18T12:25:36.785Z,13.13
2018-10-18T12:28:04.606Z,13.50
2018-10-18T12:30:32.434Z,12.60
2018-10-18T12:33:00.229Z,14.00
2018-10-18T12:35:28.335Z,13.50
2018-10-18T12:37:56.086Z,13.77
2018-10-18T12:40:23.869Z,14.18
2018-10-18T12:42:52.042Z,13.73
2018-10-18T12:45:19.819Z,13.40
2018-10-18T12:47:47.726Z,13.63
2018-10-18T12:50:15.640Z,13.77
2018-10-18T12:52:43.843Z,13.13
2018-10-18T12:55:11.678Z,14.03
2018-10-18T12:57:39.570Z,13.50
2018-10-18T13:00:08.990Z,13.83
2018-10-18T13:02:36.990Z,13.37
2018-10-18T13:05:06.798Z,13.53
2018-10-18T13:07:34.642Z,14.13
2018-10-18T13:10:02.639Z,14.83
2018-10-18T13:12:30.652Z,13.53
2018-10-18T13:14:58.501Z,12.98
2018-10-18T13:17:26.355Z,14.27
2018-10-18T13:19:54.219Z,14.20
2018-10-18T13:22:22.043Z,13.10
2018-10-18T13:24:49.974Z,12.85
2018-10-18T13:29:45.206Z,13.07
2018-10-18T13:32:13.226Z,13.87
2018-10-18T13:34:41.058Z,13.50
2018-10-18T13:37:08.873Z,13.97
2018-10-18T13:39:36.695Z,12.27
2018-10-18T13:44:32.419Z,12.88
2018-10-18T13:47:00.199Z,13.33
2018-10-18T13:49:27.874Z,13.25
2018-10-18T13:51:55.754Z,13.97
2018-10-18T13:54:23.600Z,13.07
2018-10-18T13:56:51.309Z,13.93
2018-10-18T13:59:37.020Z,13.98
2018-10-18T14:02:05.308Z,13.43
2018-10-18T14:04:33.219Z,14.30
2018-10-18T14:09:28.285Z,13.70
2018-10-18T14:11:56.023Z,13.97
2018-10-18T14:14:23.949Z,13.45
2018-10-18T14:16:51.926Z,13.27
2018-10-18T14:19:19.951Z,13.07
2018-10-18T14:21:47.946Z,13.40
2018-10-18T14:28:06.624Z,13.38
2018-10-18T14:33:01.703Z,12.50
2018-10-18T14:35:29.541Z,12.77
2018-10-18T14:37:57.334Z,12.50
2018-10-18T14:40:25.020Z,12.93
2018-10-18T14:42:53.690Z,13.57
2018-10-18T14:45:21.514Z,12.50
2018-10-18T14:47:49.571Z,12.58
2018-10-18T14:50:23.681Z,12.63
2018-10-18T14:52:51.486Z,13.50
2018-10-18T14:55:19.570Z,13.50
2018-10-18T14:57:47.558Z,14.70
2018-10-18T15:00:15.486Z,15.17
2018-10-18T15:02:43.216Z,15.05
2018-10-18T15:05:11.951Z,15.23
2018-10-18T15:07:40.381Z,14.70
2018-10-18T15:10:10.866Z,14.87
2018-10-18T15:12:38.820Z,14.83
2018-10-18T15:15:08.233Z,15.07
2018-10-18T15:17:35.943Z,15.00
2018-10-18T15:20:05.113Z,15.33
2018-10-18T15:22:33.034Z,15.03
2018-10-18T15:25:01.273Z,13.27
2018-10-18T15:27:29.110Z,13.30
2018-10-18T15:29:58.853Z,13.70
2018-10-18T15:32:30.452Z,12.00
2018-10-18T15:37:28.778Z,12.25
2018-10-18T15:39:58.662Z,13.48
2018-10-18T15:42:27.885Z,12.23
2018-10-18T15:44:57.767Z,12.37
2018-10-18T15:47:27.945Z,13.07
2018-10-18T15:49:57.902Z,12.50
2018-10-18T15:52:27.607Z,12.73
2018-10-18T15:54:56.834Z,12.93
2018-10-18T16:02:26.202Z,11.93
2018-10-18T16:04:53.824Z,12.98
2018-10-18T16:07:21.621Z,11.93
2018-10-18T16:09:49.617Z,13.07
2018-10-18T16:12:18.219Z,12.80
2018-10-18T16:14:46.066Z,11.77
2018-10-18T16:17:14.573Z,12.40
2018-10-18T16:19:42.302Z,11.10
2018-10-18T16:22:10.026Z,11.40
2018-10-18T16:24:37.888Z,11.73
2018-10-18T16:27:05.642Z,11.20
2018-10-18T16:29:33.301Z,10.80
2018-10-18T16:32:01.044Z,11.53
2018-10-18T16:34:29.222Z,10.93
2018-10-18T16:36:56.954Z,10.97
2018-10-18T16:39:24.776Z,11.10
2018-10-18T16:44:19.762Z,11.77
2018-10-18T16:47:25.209Z,10.78
2018-10-18T16:49:53.416Z,10.87
2018-10-18T16:52:21.608Z,11.03
2018-10-18T16:54:50.013Z,11.78
2018-10-18T16:57:17.926Z,10.50
2018-10-18T16:59:45.664Z,11.03
2018-10-18T17:02:13.738Z,10.93
2018-10-18T17:04:41.590Z,11.10
2018-10-18T17:07:09.258Z,10.47
2018-10-18T17:09:36.962Z,10.43
2018-10-18T17:14:32.783Z,10.00
2018-10-18T17:17:00.611Z,9.77
2018-10-18T17:19:28.546Z,9.63
2018-10-18T17:21:56.213Z,9.28
2018-10-18T17:24:23.856Z,9.83
2018-10-18T17:26:51.786Z,10.30
2018-10-18T17:31:46.786Z,9.43
2018-10-18T17:34:14.635Z,8.97
2018-10-18T17:36:42.538Z,9.33
2018-10-18T17:39:10.821Z,9.30
2018-10-18T17:41:38.586Z,9.50
2018-10-18T17:44:07.065Z,8.87
2018-10-18T17:49:01.821Z,9.50
2018-10-18T17:51:29.613Z,10.03
2018-10-18T17:53:57.498Z,9.43
2018-10-18T17:58:52.810Z,9.17
2018-10-18T18:01:20.666Z,8.80
2018-10-18T18:03:48.302Z,8.17
2018-10-18T18:06:16.099Z,9.15
2018-10-18T18:08:44.046Z,8.50
2018-10-18T18:13:38.992Z,8.33
2018-10-18T18:16:06.764Z,7.83
2018-10-18T18:18:34.497Z,7.90
2018-10-18T18:21:02.207Z,8.47
2018-10-18T18:23:53.017Z,8.23
2018-10-18T18:26:20.721Z,9.00
2018-10-18T18:28:48.767Z,8.07
2018-10-18T18:31:16.579Z,8.70
2018-10-18T18:33:44.193Z,8.07
2018-10-18T18:36:12.040Z,8.10
2018-10-18T18:38:39.749Z,7.63
2018-10-18T18:41:07.573Z,8.17
2018-10-18T18:43:35.197Z,7.40
2018-10-18T18:48:30.216Z,8.28
2018-10-18T18:50:57.993Z,7.87
2018-10-18T18:53:25.726Z,7.87
2018-10-18T18:58:20.918Z,8.73
2018-10-18T19:00:48.698Z,8.43
2018-10-18T19:03:16.531Z,8.30
2018-10-18T19:05:44.775Z,8.40
2018-10-18T19:08:13.522Z,8.77
2018-10-18T19:10:41.200Z,8.73
2018-10-18T19:13:08.963Z,8.67
2018-10-18T19:18:04.992Z,8.23
2018-10-18T19:20:32.668Z,7.92
2018-10-18T19:23:00.610Z,7.77
2018-10-18T19:25:28.557Z,7.67
2018-10-18T19:27:56.302Z,7.33
2018-10-18T19:30:23.990Z,7.20
2018-10-18T19:32:51.850Z,7.90
2018-10-18T19:36:10.767Z,8.23
2018-10-18T19:38:39.658Z,8.70
2018-10-18T19:41:07.585Z,9.10
2018-10-18T19:43:35.836Z,8.60
2018-10-18T19:46:04.636Z,8.55
2018-10-18T19:48:32.597Z,8.30
2018-10-18T19:51:00.598Z,7.53
2018-10-18T19:53:32.294Z,7.23
2018-10-18T19:56:00.033Z,7.15
2018-10-18T19:58:28.054Z,7.63
2018-10-18T20:00:55.984Z,8.27
2018-10-18T20:03:23.723Z,7.53
2018-10-18T20:05:51.603Z,7.80
2018-10-18T20:08:19.539Z,8.87
2018-10-18T20:10:47.807Z,10.03
2018-10-18T20:13:16.054Z,10.07
2018-10-18T20:15:44.202Z,10.33
2018-10-18T20:20:39.196Z,10.30
2018-10-18T20:23:06.934Z,10.60
2018-10-18T20:25:34.839Z,10.00
2018-10-18T20:28:03.202Z,10.07
2018-10-18T20:30:31.967Z,10.07
2018-10-18T20:33:00.011Z,10.53
2018-10-18T20:37:55.043Z,9.57
2018-10-18T20:40:23.046Z,10.20
2018-10-18T20:42:50.896Z,10.50
2018-10-18T20:47:56.642Z,10.23
2018-10-18T20:50:24.585Z,10.67
2018-10-18T20:53:58.874Z,10.00
2018-10-18T20:56:26.617Z,9.73
2018-10-18T20:58:54.780Z,10.58
2018-10-18T21:01:22.599Z,9.93
2018-10-18T21:03:50.525Z,9.65
2018-10-18T21:06:18.284Z,9.60
2018-10-18T21:08:45.989Z,10.65
2018-10-18T21:11:13.793Z,11.00
2018-10-18T21:13:41.559Z,9.90
2018-10-18T21:16:09.607Z,10.07
2018-10-18T21:21:05.076Z,10.13
2018-10-18T21:23:33.093Z,10.20
2018-10-18T21:26:00.818Z,10.47
2018-10-18T21:28:28.770Z,10.43
2018-10-18T21:33:24.859Z,9.15
2018-10-18T21:35:52.670Z,9.33
2018-10-18T21:38:20.589Z,10.03
2018-10-18T21:40:48.622Z,9.98
2018-10-18T21:43:16.646Z,9.83
2018-10-18T21:45:44.854Z,10.00
2018-10-18T21:48:12.958Z,9.48
2018-10-18T21:53:08.263Z,9.60
2018-10-18T21:55:36.046Z,9.87
2018-10-18T21:58:04.057Z,10.38
2018-10-18T22:00:36.501Z,10.67
2018-10-18T22:03:04.535Z,10.77
2018-10-18T22:05:32.692Z,11.50
2018-10-18T22:08:00.575Z,9.88
2018-10-18T22:10:28.730Z,10.43
2018-10-18T22:12:56.687Z,10.20
2018-10-18T22:15:24.563Z,10.63
2018-10-18T22:17:52.486Z,11.47
2018-10-18T22:22:47.602Z,9.95
2018-10-18T22:25:15.506Z,10.30
2018-10-18T22:30:10.468Z,9.95
2018-10-18T22:32:38.343Z,8.80
2018-10-18T22:35:06.165Z,10.57
2018-10-18T22:37:34.007Z,10.20
2018-10-18T22:40:01.950Z,10.20
2018-10-18T22:44:57.656Z,10.65
2018-10-18T22:47:25.765Z,11.17
2018-10-18T22:49:53.806Z,11.30
2018-10-18T22:53:27.387Z,10.07
2018-10-18T22:55:55.449Z,10.17
2018-10-18T22:58:23.659Z,10.13
2018-10-18T23:00:51.409Z,10.50
2018-10-18T23:03:20.026Z,10.40
2018-10-18T23:05:48.625Z,11.57
2018-10-18T23:08:16.625Z,11.40
2018-10-18T23:10:44.916Z,11.27
2018-10-18T23:13:12.885Z,12.10
2018-10-18T23:18:09.002Z,10.93
2018-10-18T23:23:05.008Z,10.23
2018-10-18T23:25:32.722Z,9.98
2018-10-18T23:28:00.638Z,10.47
2018-10-18T23:30:28.462Z,9.37
2018-10-18T23:32:56.244Z,10.27
2018-10-18T23:35:23.946Z,9.93
2018-10-18T23:37:51.681Z,9.30
2018-10-18T23:40:19.686Z,10.47
2018-10-18T23:42:47.662Z,10.60
2018-10-18T23:45:15.670Z,9.87
2018-10-18T23:47:43.592Z,10.07
2018-10-18T23:50:11.398Z,10.70
2018-10-18T23:52:39.222Z,10.50
2018-10-18T23:55:07.007Z,11.33
2018-10-18T23:57:34.890Z,10.67
